createdAt,value
2023-04-19T00:01:29.475Z,103508.47
2023-04-19T00:03:56.961Z,103503.09
2023-04-19T00:06:24.673Z,103501.09
2023-04-19T00:08:51.588Z,103503.94
2023-04-19T00:11:18.345Z,103502.97
2023-04-19T00:13:45.094Z,103493.69
2023-04-19T00:16:11.920Z,103489.53
2023-04-19T00:18:38.913Z,103482.41
2023-04-19T00:21:06.087Z,103477.31
2023-04-19T00:23:32.778Z,103487.06
2023-04-19T00:25:59.456Z,103484.41
2023-04-19T00:28:26.381Z,103480.97
2023-04-19T00:30:53.122Z,103477.19
2023-04-19T00:33:19.984Z,103470.78
2023-04-19T00:35:46.671Z,103465.31
2023-04-19T00:38:13.562Z,103477.06
2023-04-19T00:40:40.281Z,103473.34
2023-04-19T00:43:07.627Z,103467.06
2023-04-19T00:45:35.235Z,103475.22
2023-04-19T00:48:02.127Z,103463.50
2023-04-19T00:50:29.030Z,103470.72
2023-04-19T00:52:56.557Z,103468.81
2023-04-19T00:55:24.053Z,103466.34
2023-04-19T00:57:52.246Z,103460.81
2023-04-19T01:00:20.090Z,103469.97
2023-04-19T01:02:47.875Z,103469.81
2023-04-19T01:05:15.330Z,103472.66
2023-04-19T01:07:43.358Z,103478.78
2023-04-19T01:10:10.743Z,103478.00
2023-04-19T01:12:37.415Z,103484.19
2023-04-19T01:15:04.446Z,103479.75
2023-04-19T01:17:33.073Z,103484.28
2023-04-19T01:20:06.826Z,103474.75
2023-04-19T01:22:33.861Z,103483.59
2023-04-19T01:25:00.972Z,103478.25
2023-04-19T01:27:27.689Z,103483.69
2023-04-19T01:29:54.389Z,103485.25
2023-04-19T01:32:21.220Z,103483.41
2023-04-19T01:34:50.990Z,103475.25
2023-04-19T01:37:17.653Z,103479.88
2023-04-19T01:39:44.387Z,103474.72
2023-04-19T01:42:11.118Z,103474.88
2023-04-19T01:44:37.900Z,103473.84
2023-04-19T01:47:05.442Z,103485.63
2023-04-19T01:49:32.450Z,103474.25
2023-04-19T01:51:59.149Z,103466.25
2023-04-19T01:54:25.856Z,103470.94
2023-04-19T01:56:52.547Z,103470.97
2023-04-19T01:59:19.232Z,103479.94
2023-04-19T02:01:46.002Z,103476.25
2023-04-19T02:04:12.959Z,103462.91
2023-04-19T02:06:39.805Z,103465.00
2023-04-19T02:09:06.548Z,103474.75
2023-04-19T02:11:33.334Z,103470.38
2023-04-19T02:14:00.180Z,103478.41
2023-04-19T02:16:26.909Z,103472.22
2023-04-19T02:18:53.686Z,103474.16
2023-04-19T02:21:20.472Z,103472.31
2023-04-19T02:23:47.168Z,103471.59
2023-04-19T02:26:13.804Z,103472.63
2023-04-19T02:28:40.587Z,103479.88
2023-04-19T02:31:07.367Z,103468.25
2023-04-19T02:33:34.057Z,103467.41
2023-04-19T02:36:00.927Z,103466.50
2023-04-19T02:38:27.623Z,103466.53
2023-04-19T02:40:54.905Z,103474.63
2023-04-19T02:43:21.640Z,103469.38
2023-04-19T02:45:51.563Z,103468.44
2023-04-19T02:48:18.301Z,103464.00
2023-04-19T02:50:48.425Z,103451.53
2023-04-19T02:53:15.274Z,103449.81
2023-04-19T02:55:42.147Z,103457.94
2023-04-19T02:58:08.816Z,103453.56
2023-04-19T03:00:35.808Z,103446.41
2023-04-19T03:03:04.669Z,103450.00
2023-04-19T03:05:31.988Z,103460.78
2023-04-19T03:07:58.964Z,103448.25
2023-04-19T03:10:26.224Z,103452.75
2023-04-19T03:12:52.915Z,103455.44
2023-04-19T03:15:21.023Z,103446.47
2023-04-19T03:17:47.778Z,103445.59
2023-04-19T03:20:15.004Z,103446.50
2023-04-19T03:22:41.667Z,103444.72
2023-04-19T03:25:08.953Z,103440.25
2023-04-19T03:27:36.809Z,103439.38
2023-04-19T03:30:03.782Z,103434.91
2023-04-19T03:32:31.695Z,103434.00
2023-04-19T03:34:58.619Z,103429.47
2023-04-19T03:37:25.350Z,103428.63
2023-04-19T03:39:52.024Z,103425.00
2023-04-19T03:42:18.700Z,103424.09
2023-04-19T03:44:45.513Z,103429.47
2023-04-19T03:47:12.179Z,103419.63
2023-04-19T03:49:39.011Z,103418.66
2023-04-19T03:52:05.734Z,103414.19
2023-04-19T03:54:32.351Z,103412.38
2023-04-19T03:56:59.497Z,103409.66
2023-04-19T03:59:26.310Z,103402.41
2023-04-19T04:01:53.090Z,103403.28
2023-04-19T04:04:20.152Z,103403.28
2023-04-19T04:06:47.312Z,103401.47
2023-04-19T04:09:13.998Z,103410.41
2023-04-19T04:11:40.632Z,103401.44
2023-04-19T04:14:07.503Z,103395.91
2023-04-19T04:16:34.199Z,103398.50
2023-04-19T04:19:00.921Z,103393.03
2023-04-19T04:21:28.264Z,103399.19
2023-04-19T04:23:54.997Z,103391.81
2023-04-19T04:26:22.006Z,103392.00
2023-04-19T04:28:48.781Z,103391.16
2023-04-19T04:31:18.115Z,103389.19
2023-04-19T04:33:45.984Z,103386.47
2023-04-19T04:36:12.881Z,103390.00
2023-04-19T04:38:39.678Z,103388.31
2023-04-19T04:41:06.446Z,103386.53
2023-04-19T04:43:34.634Z,103392.63
2023-04-19T04:46:02.030Z,103382.59
2023-04-19T04:48:28.761Z,103375.19
2023-04-19T04:50:55.657Z,103383.09
2023-04-19T04:53:22.399Z,103373.91
2023-04-19T04:55:49.144Z,103365.44
2023-04-19T04:58:16.249Z,103372.53
2023-04-19T05:00:43.240Z,103367.78
2023-04-19T05:03:10.054Z,103364.16
2023-04-19T05:05:36.955Z,103363.00
2023-04-19T05:08:03.925Z,103360.88
2023-04-19T05:10:30.693Z,103364.69
2023-04-19T05:12:57.405Z,103353.41
2023-04-19T05:15:24.118Z,103354.38
2023-04-19T05:17:50.880Z,103358.31
2023-04-19T05:20:17.570Z,103366.06
2023-04-19T05:22:44.223Z,103352.34
2023-04-19T05:25:11.333Z,103358.44
2023-04-19T05:27:38.216Z,103361.94
2023-04-19T05:30:06.663Z,103361.88
2023-04-19T05:32:33.567Z,103358.19
2023-04-19T05:35:00.312Z,103352.72
2023-04-19T05:37:27.111Z,103358.25
2023-04-19T05:39:53.882Z,103356.34
2023-04-19T05:42:20.750Z,103349.50
2023-04-19T05:44:47.439Z,103340.13
2023-04-19T05:47:14.209Z,103338.19
2023-04-19T05:49:42.075Z,103334.78
2023-04-19T05:52:10.071Z,103335.88
2023-04-19T05:54:36.859Z,103337.75
2023-04-19T05:57:04.006Z,103335.03
2023-04-19T05:59:30.741Z,103337.53
2023-04-19T06:01:57.576Z,103340.59
2023-04-19T06:04:24.794Z,103328.75
2023-04-19T06:06:51.874Z,103328.59
2023-04-19T06:09:18.827Z,103329.94
2023-04-19T06:11:50.808Z,103335.03
2023-04-19T06:14:21.524Z,103338.59
2023-04-19T06:16:51.569Z,103340.13
2023-04-19T06:19:18.493Z,103346.94
2023-04-19T06:21:46.025Z,103348.00
2023-04-19T06:24:12.845Z,103312.44
2023-04-19T06:26:39.682Z,103289.91
2023-04-19T06:29:08.852Z,103268.31
2023-04-19T06:31:37.662Z,103254.59
2023-04-19T06:34:05.742Z,103231.78
2023-04-19T06:36:33.085Z,103225.56
2023-04-19T06:39:00.315Z,103229.59
2023-04-19T06:41:28.230Z,103217.94
2023-04-19T06:43:57.061Z,103218.66
2023-04-19T06:46:24.702Z,103201.81
2023-04-19T06:48:52.107Z,103225.31
2023-04-19T06:51:19.538Z,103220.47
2023-04-19T06:53:46.870Z,103210.97
2023-04-19T06:56:14.289Z,103210.94
2023-04-19T06:58:42.755Z,103240.81
2023-04-19T07:01:11.102Z,103262.59
2023-04-19T07:03:38.555Z,103269.91
2023-04-19T07:06:06.163Z,103268.34
2023-04-19T07:08:48.606Z,103258.09
2023-04-19T07:11:17.105Z,103261.09
2023-04-19T07:13:44.678Z,103255.47
2023-04-19T07:16:13.052Z,103253.00
2023-04-19T07:18:40.135Z,103264.66
2023-04-19T07:21:07.445Z,103265.41
2023-04-19T07:23:37.830Z,103274.75
2023-04-19T07:26:04.870Z,103256.59
2023-04-19T07:28:32.350Z,103269.66
2023-04-19T07:30:59.187Z,103275.81
2023-04-19T07:33:28.148Z,103279.97
2023-04-19T07:35:55.593Z,103260.03
2023-04-19T07:38:22.903Z,103278.50
2023-04-19T07:40:50.050Z,103275.63
2023-04-19T07:43:16.856Z,103261.97
2023-04-19T07:45:43.690Z,103254.00
2023-04-19T07:48:10.488Z,103257.78
2023-04-19T07:50:37.404Z,103260.81
2023-04-19T07:53:04.106Z,103256.50
2023-04-19T07:55:30.999Z,103240.63
2023-04-19T07:57:57.709Z,103252.00
2023-04-19T08:00:24.476Z,103261.50
2023-04-19T08:02:51.450Z,103224.78
2023-04-19T08:05:18.589Z,103223.28
2023-04-19T08:07:45.751Z,103233.66
2023-04-19T08:10:12.815Z,103211.53
2023-04-19T08:12:47.681Z,103219.72
2023-04-19T08:16:05.066Z,103232.13
2023-04-19T08:18:11.105Z,103223.41
2023-04-19T08:20:38.058Z,103218.19
2023-04-19T08:23:18.150Z,103223.81
2023-04-19T08:25:49.704Z,103212.09
2023-04-19T08:28:17.192Z,103198.84
2023-04-19T08:30:44.003Z,103202.47
2023-04-19T08:33:10.954Z,103209.97
2023-04-19T08:35:41.025Z,103179.09
2023-04-19T08:38:08.472Z,103184.22
2023-04-19T08:40:35.910Z,103197.88
2023-04-19T08:43:06.895Z,103173.41
2023-04-19T08:45:34.504Z,103160.97
2023-04-19T08:48:02.830Z,103157.25
2023-04-19T08:50:36.025Z,103165.09
2023-04-19T08:53:24.042Z,103153.75
2023-04-19T08:56:08.777Z,103153.69
2023-04-19T08:58:57.782Z,103160.50
2023-04-19T09:01:34.784Z,103177.56
2023-04-19T09:04:17.036Z,103151.69
2023-04-19T09:06:53.656Z,103143.13
2023-04-19T09:11:55.282Z,103126.00
2023-04-19T09:14:22.757Z,103126.06
2023-04-19T09:16:51.889Z,103104.63
2023-04-19T09:19:25.026Z,103123.63
2023-04-19T09:21:54.516Z,103112.34
2023-04-19T09:25:14.543Z,103123.34
2023-04-19T09:27:43.731Z,103114.63
2023-04-19T09:30:17.485Z,103112.34
2023-04-19T09:32:49.250Z,103130.88
2023-04-19T09:35:16.356Z,103115.28
2023-04-19T09:40:25.056Z,103090.59
2023-04-19T09:45:30.182Z,103071.25
2023-04-19T09:48:05.522Z,103068.47
2023-04-19T09:50:34.060Z,103095.38
2023-04-19T09:53:10.689Z,103100.84
2023-04-19T09:55:52.370Z,103110.81
2023-04-19T09:58:24.368Z,103107.84
2023-04-19T10:01:10.667Z,103106.16
2023-04-19T10:03:41.811Z,103094.22
2023-04-19T10:06:14.246Z,103096.25
2023-04-19T10:08:43.589Z,103111.34
2023-04-19T10:11:12.023Z,103103.56
2023-04-19T10:13:39.720Z,103095.53
2023-04-19T10:16:18.234Z,103114.19
2023-04-19T10:18:49.752Z,103090.88
2023-04-19T10:21:16.896Z,103083.41
2023-04-19T10:23:43.702Z,103071.91
2023-04-19T10:26:10.443Z,103114.22
2023-04-19T10:28:38.268Z,103086.25
2023-04-19T10:31:05.876Z,103084.88
2023-04-19T10:33:37.970Z,103102.44
2023-04-19T10:36:08.410Z,103093.25
2023-04-19T10:38:49.388Z,103089.63
2023-04-19T10:41:18.703Z,103092.88
2023-04-19T10:44:10.188Z,103054.72
2023-04-19T10:46:40.687Z,103061.84
2023-04-19T10:49:09.864Z,103037.59
2023-04-19T10:51:39.080Z,103043.59
2023-04-19T10:54:07.706Z,103101.22
2023-04-19T10:56:34.490Z,103049.88
2023-04-19T10:59:01.300Z,103081.84
2023-04-19T11:01:40.280Z,103045.28
2023-04-19T11:04:09.045Z,103052.69
2023-04-19T11:06:38.099Z,103038.31
2023-04-19T11:09:10.047Z,103033.44
2023-04-19T11:11:36.769Z,103015.72
2023-04-19T11:14:14.109Z,103031.19
2023-04-19T11:16:45.632Z,103020.63
2023-04-19T11:19:20.258Z,103046.72
2023-04-19T11:21:48.303Z,103029.44
2023-04-19T11:24:19.087Z,103026.88
2023-04-19T11:26:46.521Z,103020.03
2023-04-19T11:29:13.554Z,103020.69
2023-04-19T11:31:41.133Z,103027.69
2023-04-19T11:34:07.891Z,102999.06
2023-04-19T11:36:36.950Z,102970.22
2023-04-19T11:39:06.874Z,102966.88
2023-04-19T11:41:40.072Z,102958.38
2023-04-19T11:44:14.241Z,102954.06
2023-04-19T11:46:41.485Z,102962.16
2023-04-19T11:49:08.302Z,102926.38
2023-04-19T11:51:35.049Z,102942.13
2023-04-19T11:54:01.910Z,102943.09
2023-04-19T11:56:28.570Z,102937.50
2023-04-19T11:58:58.252Z,102962.41
2023-04-19T12:01:25.951Z,102957.72
2023-04-19T12:03:55.220Z,102918.84
2023-04-19T12:06:27.745Z,102880.56
2023-04-19T12:08:56.061Z,102892.16
2023-04-19T12:11:26.436Z,102900.84
2023-04-19T12:14:13.065Z,102905.09
2023-04-19T12:16:39.957Z,102903.50
2023-04-19T12:19:17.995Z,102905.19
2023-04-19T12:21:47.272Z,102902.91
2023-04-19T12:24:17.297Z,102924.78
2023-04-19T12:26:56.350Z,102905.78
2023-04-19T12:29:23.283Z,102907.38
2023-04-19T12:31:50.109Z,102912.59
2023-04-19T12:34:16.902Z,102854.03
2023-04-19T12:36:43.571Z,102861.75
2023-04-19T12:39:10.273Z,102863.22
2023-04-19T12:41:36.978Z,102827.59
2023-04-19T12:44:03.934Z,102850.38
2023-04-19T12:46:30.881Z,102862.75
2023-04-19T12:48:57.702Z,102839.63
2023-04-19T12:51:24.388Z,102861.00
2023-04-19T12:53:52.540Z,102886.53
2023-04-19T12:56:19.406Z,102873.31
2023-04-19T12:58:46.512Z,102876.63
2023-04-19T13:01:13.281Z,102808.50
2023-04-19T13:03:40.252Z,102836.53
2023-04-19T13:06:07.218Z,102803.84
2023-04-19T13:08:43.383Z,102788.94
2023-04-19T13:11:11.232Z,102797.53
2023-04-19T13:13:37.977Z,102817.28
2023-04-19T13:16:06.180Z,102834.44
2023-04-19T13:18:32.968Z,102849.34
2023-04-19T13:20:59.920Z,102821.78
2023-04-19T13:23:26.660Z,102800.91
2023-04-19T13:25:53.370Z,102798.03
2023-04-19T13:28:22.745Z,102845.88
2023-04-19T13:30:49.506Z,102866.69
2023-04-19T13:33:16.262Z,102839.06
2023-04-19T13:35:44.912Z,102830.44
2023-04-19T13:38:11.687Z,102800.09
2023-04-19T13:40:38.454Z,102800.53
2023-04-19T13:43:05.205Z,102793.28
2023-04-19T13:45:32.363Z,102803.78
2023-04-19T13:47:59.122Z,102753.66
2023-04-19T13:50:25.938Z,102770.06
2023-04-19T13:52:52.956Z,102786.44
2023-04-19T13:55:19.888Z,102789.84
2023-04-19T13:57:46.704Z,102798.09
2023-04-19T14:00:13.907Z,102809.78
2023-04-19T14:02:40.889Z,102820.25
2023-04-19T14:05:08.099Z,102795.50
2023-04-19T14:07:34.766Z,102766.94
2023-04-19T14:10:02.339Z,102794.81
2023-04-19T14:12:29.063Z,102814.88
2023-04-19T14:14:55.893Z,102826.56
2023-04-19T14:17:22.575Z,102824.63
2023-04-19T14:19:49.294Z,102763.91
2023-04-19T14:22:19.000Z,102772.28
2023-04-19T14:24:46.341Z,102811.06
2023-04-19T14:27:13.086Z,102800.03
2023-04-19T14:29:39.883Z,102783.09
2023-04-19T14:32:23.570Z,102775.00
2023-04-19T14:34:54.843Z,102750.19
2023-04-19T14:37:22.558Z,102769.56
2023-04-19T14:39:49.248Z,102767.84
2023-04-19T14:42:16.145Z,102781.09
2023-04-19T14:44:42.920Z,102799.31
2023-04-19T14:47:09.711Z,102780.72
2023-04-19T14:49:36.376Z,102759.66
2023-04-19T14:52:04.036Z,102774.44
2023-04-19T14:54:30.827Z,102756.72
2023-04-19T14:56:57.499Z,102748.75
2023-04-19T14:59:24.230Z,102741.38
2023-04-19T15:01:51.047Z,102734.31
2023-04-19T15:04:18.017Z,102752.84
2023-04-19T15:06:44.908Z,102726.94
2023-04-19T15:09:11.756Z,102740.88
2023-04-19T15:11:38.567Z,102745.38
2023-04-19T15:14:05.488Z,102780.53
2023-04-19T15:16:32.275Z,102788.63
2023-04-19T15:18:58.978Z,102761.03
2023-04-19T15:21:25.735Z,102758.69
2023-04-19T15:23:52.491Z,102731.84
2023-04-19T15:26:19.226Z,102715.63
2023-04-19T15:28:46.093Z,102715.78
2023-04-19T15:31:12.884Z,102724.53
2023-04-19T15:33:40.095Z,102736.28
2023-04-19T15:36:07.059Z,102727.25
2023-04-19T15:38:33.940Z,102720.84
2023-04-19T15:41:04.039Z,102719.38
2023-04-19T15:43:30.735Z,102756.88
2023-04-19T15:45:57.397Z,102772.19
2023-04-19T15:48:24.193Z,102785.75
2023-04-19T15:50:50.950Z,102807.47
2023-04-19T15:53:17.687Z,102846.09
2023-04-19T15:55:46.598Z,102834.88
2023-04-19T15:58:13.326Z,102849.69
2023-04-19T16:00:39.932Z,102867.63
2023-04-19T16:03:09.760Z,102889.81
2023-04-19T16:05:36.581Z,102918.50
2023-04-19T16:08:09.213Z,102907.50
2023-04-19T16:10:36.282Z,102906.81
2023-04-19T16:13:04.810Z,102889.00
2023-04-19T16:15:32.405Z,102914.44
2023-04-19T16:17:59.122Z,102928.34
2023-04-19T16:20:25.783Z,102934.75
2023-04-19T16:22:52.445Z,102918.13
2023-04-19T16:25:19.324Z,102915.81
2023-04-19T16:27:47.121Z,102935.31
2023-04-19T16:30:15.543Z,102929.72
2023-04-19T16:32:43.213Z,102935.72
2023-04-19T16:35:10.126Z,102928.63
2023-04-19T16:37:37.070Z,102923.28
2023-04-19T16:40:08.475Z,102922.47
2023-04-19T16:42:36.478Z,102910.13
2023-04-19T16:45:04.122Z,102914.91
2023-04-19T16:47:31.190Z,102920.16
2023-04-19T16:49:58.698Z,102915.06
2023-04-19T16:52:27.142Z,102911.09
2023-04-19T16:54:54.150Z,102894.75
2023-04-19T16:57:22.589Z,102887.94
2023-04-19T16:59:49.579Z,102901.09
2023-04-19T17:02:16.773Z,102884.22
2023-04-19T17:04:43.901Z,102879.81
2023-04-19T17:07:11.599Z,102878.91
2023-04-19T17:09:38.345Z,102878.03
2023-04-19T17:12:06.052Z,102881.06
2023-04-19T17:14:35.017Z,102875.78
2023-04-19T17:17:01.795Z,102888.69
2023-04-19T17:19:28.514Z,102886.53
2023-04-19T17:21:55.603Z,102892.34
2023-04-19T17:24:22.432Z,102881.59
2023-04-19T17:26:50.103Z,102877.56
2023-04-19T17:29:17.062Z,102879.69
2023-04-19T17:31:44.263Z,102871.00
2023-04-19T17:34:11.256Z,102883.84
2023-04-19T17:36:38.022Z,102881.97
2023-04-19T17:39:06.598Z,102895.31
2023-04-19T17:41:33.770Z,102892.72
2023-04-19T17:44:00.634Z,102894.03
2023-04-19T17:46:27.599Z,102894.91
2023-04-19T17:48:55.538Z,102901.00
2023-04-19T17:51:22.533Z,102908.22
2023-04-19T17:53:49.301Z,102905.28
2023-04-19T17:56:16.081Z,102916.31
2023-04-19T17:58:42.824Z,102911.59
2023-04-19T18:01:10.510Z,102916.94
2023-04-19T18:03:38.132Z,102907.34
2023-04-19T18:06:06.119Z,102912.69
2023-04-19T18:08:32.906Z,102908.66
2023-04-19T18:10:59.802Z,102911.25
2023-04-19T18:13:27.974Z,102908.22
2023-04-19T18:15:54.875Z,102913.88
2023-04-19T18:18:21.644Z,102909.16
2023-04-19T18:20:48.784Z,102913.78
2023-04-19T18:23:15.778Z,102907.88
2023-04-19T18:25:42.568Z,102916.03
2023-04-19T18:28:09.307Z,102911.19
2023-04-19T18:30:36.092Z,102906.38
2023-04-19T18:33:02.828Z,102906.94
2023-04-19T18:35:29.922Z,102906.69
2023-04-19T18:37:56.614Z,102910.25
2023-04-19T18:40:23.397Z,102913.06
2023-04-19T18:42:50.301Z,102910.19
2023-04-19T18:45:17.383Z,102921.56
2023-04-19T18:47:44.185Z,102908.09
2023-04-19T18:50:11.967Z,102910.84
2023-04-19T18:52:38.911Z,102904.03
2023-04-19T18:55:06.493Z,102903.00
2023-04-19T18:57:35.069Z,102906.63
2023-04-19T19:00:06.096Z,102911.06
2023-04-19T19:02:36.038Z,102917.94
2023-04-19T19:05:07.287Z,102901.41
2023-04-19T19:07:36.629Z,102911.22
2023-04-19T19:10:17.051Z,102914.25
2023-04-19T19:12:47.715Z,102910.78
2023-04-19T19:15:14.530Z,102910.78
2023-04-19T19:17:41.417Z,102909.72
2023-04-19T19:20:09.932Z,102911.31
2023-04-19T19:22:36.765Z,102905.56
2023-04-19T19:25:03.865Z,102906.78
2023-04-19T19:27:30.720Z,102906.78
2023-04-19T19:29:58.799Z,102919.75
2023-04-19T19:32:26.002Z,102904.34
2023-04-19T19:34:56.558Z,102913.63
2023-04-19T19:37:28.599Z,102915.88
2023-04-19T19:39:56.962Z,102911.53
2023-04-19T19:42:25.607Z,102904.75
2023-04-19T19:44:55.861Z,102914.44
2023-04-19T19:47:25.144Z,102906.31
2023-04-19T19:52:21.651Z,102913.81
2023-04-19T19:54:48.472Z,102923.91
2023-04-19T19:59:51.304Z,102918.72
2023-04-19T20:02:22.167Z,102912.16
2023-04-19T20:04:49.516Z,102910.19
2023-04-19T20:09:46.300Z,102910.72
2023-04-19T20:12:13.985Z,102916.44
2023-04-19T20:14:40.901Z,102909.19
2023-04-19T20:17:07.744Z,102907.16
2023-04-19T20:19:35.898Z,102911.38
2023-04-19T20:22:02.818Z,102915.16
2023-04-19T20:24:31.767Z,102918.25
2023-04-19T20:26:58.457Z,102909.41
2023-04-19T20:29:25.305Z,102912.75
2023-04-19T20:31:52.031Z,102910.06
2023-04-19T20:34:18.717Z,102905.66
2023-04-19T20:36:48.331Z,102906.88
2023-04-19T20:39:15.383Z,102913.34
2023-04-19T20:41:43.811Z,102912.69
2023-04-19T20:44:11.737Z,102906.97
2023-04-19T20:46:38.554Z,102902.53
2023-04-19T20:49:05.288Z,102902.84
2023-04-19T20:51:32.837Z,102899.84
2023-04-19T20:53:59.850Z,102904.06
2023-04-19T20:56:26.595Z,102909.69
2023-04-19T20:58:53.398Z,102906.44
2023-04-19T21:01:21.946Z,102906.41
2023-04-19T21:03:50.925Z,102903.72
2023-04-19T21:06:23.141Z,102904.47
2023-04-19T21:08:50.318Z,102892.50
2023-04-19T21:11:17.016Z,102882.16
2023-04-19T21:13:43.754Z,102873.94
2023-04-19T21:16:10.512Z,102877.84
2023-04-19T21:18:37.344Z,102884.00
2023-04-19T21:21:04.177Z,102881.53
2023-04-19T21:23:30.948Z,102882.19
2023-04-19T21:25:57.707Z,102878.13
2023-04-19T21:28:25.026Z,102877.94
2023-04-19T21:30:53.393Z,102884.28
2023-04-19T21:33:20.100Z,102873.56
2023-04-19T21:35:46.810Z,102866.97
2023-04-19T21:38:13.488Z,102862.88
2023-04-19T21:40:40.314Z,102875.84
2023-04-19T21:43:06.993Z,102869.78
2023-04-19T21:45:33.975Z,102871.06
2023-04-19T21:48:00.801Z,102871.97
2023-04-19T21:50:27.561Z,102866.31
2023-04-19T21:52:54.263Z,102859.34
2023-04-19T21:55:21.179Z,102853.94
2023-04-19T21:57:47.867Z,102853.22
2023-04-19T22:00:15.922Z,102849.84
2023-04-19T22:02:42.946Z,102851.19
2023-04-19T22:05:10.091Z,102844.84
2023-04-19T22:07:38.260Z,102842.44
2023-04-19T22:10:06.428Z,102835.44
2023-04-19T22:12:34.103Z,102843.94
2023-04-19T22:15:05.327Z,102838.53
2023-04-19T22:17:32.316Z,102842.53
2023-04-19T22:19:59.211Z,102836.69
2023-04-19T22:22:26.088Z,102831.03
2023-04-19T22:24:56.898Z,102835.09
2023-04-19T22:27:25.426Z,102823.38
2023-04-19T22:29:52.173Z,102800.34
2023-04-19T22:32:18.917Z,102776.78
2023-04-19T22:34:45.708Z,102757.69
2023-04-19T22:37:12.364Z,102756.22
2023-04-19T22:39:39.131Z,102727.59
2023-04-19T22:42:06.025Z,102731.50
2023-04-19T22:44:32.762Z,102727.69
2023-04-19T22:47:00.028Z,102713.59
2023-04-19T22:49:27.697Z,102693.28
2023-04-19T22:51:54.915Z,102696.03
2023-04-19T22:54:21.948Z,102679.53
2023-04-19T22:56:48.610Z,102677.50
2023-04-19T22:59:15.786Z,102661.91
2023-04-19T23:01:43.091Z,102659.91
2023-04-19T23:04:14.038Z,102643.84
2023-04-19T23:06:42.296Z,102627.34
2023-04-19T23:09:11.046Z,102622.41
2023-04-19T23:11:39.137Z,102625.03
2023-04-19T23:14:06.328Z,102619.31
2023-04-19T23:16:33.411Z,102636.66
2023-04-19T23:19:01.151Z,102641.16
2023-04-19T23:21:30.032Z,102658.50
2023-04-19T23:23:56.763Z,102667.50
2023-04-19T23:26:23.552Z,102670.75
2023-04-19T23:28:50.530Z,102673.44
2023-04-19T23:31:17.317Z,102677.38
2023-04-19T23:33:44.133Z,102678.75
2023-04-19T23:36:11.023Z,102671.00
2023-04-19T23:38:37.727Z,102668.97
2023-04-19T23:41:04.466Z,102665.97
2023-04-19T23:43:31.147Z,102675.72
2023-04-19T23:45:57.846Z,102665.75
2023-04-19T23:48:24.563Z,102657.25
2023-04-19T23:50:51.388Z,102666.53
2023-04-19T23:53:18.415Z,102659.59
2023-04-19T23:55:45.139Z,102650.00
2023-04-19T23:58:11.816Z,102644.72
